Time;durP1;ratioP1;P1;durP2;ratioP2;P2;SDS_P1;SDS_P2;PMS_P1;PMS_P2;Temp;Humidity;BMP_temperature;BMP_pressure;BME280_temperature;BME280_humidity;BME280_pressure;Samples;Min_cycle;Max_cycle;Signal;HPM_P1;HPM_P2
2023/03/24 00:00:31;;;;;;;;;;;;;;;17.38;100.00;99668.47;4985786;28;19922;-52
2023/03/24 00:03:00;;;;;;;;;;;;;;;17.36;100.00;99675.25;4984130;28;19944;-55
2023/03/24 00:05:27;;;;;;;;;;;;;;;17.36;100.00;99664.44;4985647;28;19929;-56
2023/03/24 00:07:52;;;;;;;;;;;;;;;17.37;100.00;99668.75;4983277;28;19914;-56
2023/03/24 00:10:19;;;;;;;;;;;;;;;17.16;100.00;99661.44;4992492;28;19914;-56
2023/03/24 00:12:45;;;;;;;;;;;;;;;17.06;100.00;99651.44;4986066;28;19945;-58
2023/03/24 00:15:12;;;;;;;;;;;;;;;17.27;100.00;99686.56;4989374;28;19974;-55
2023/03/24 00:17:38;;;;;;;;;;;;;;;17.08;100.00;99645.75;4990807;28;19918;-57
2023/03/24 00:20:13;;;;;;;;;;;;;;;17.02;100.00;99642.25;4988882;28;19914;-56
2023/03/24 00:22:41;;;;;;;;;;;;;;;17.21;100.00;99655.25;4989114;28;19913;-58
2023/03/24 00:25:09;;;;;;;;;;;;;;;17.20;100.00;99661.72;4988696;28;19914;-57
2023/03/24 00:27:35;;;;;;;;;;;;;;;17.17;100.00;99633.34;4990411;28;19921;-56
2023/03/24 00:30:03;;;;;;;;;;;;;;;17.34;100.00;99622.28;4985289;28;19914;-54
2023/03/24 00:32:29;;;;;;;;;;;;;;;17.27;100.00;99624.44;4971874;28;19921;-56
2023/03/24 00:34:54;;;;;;;;;;;;;;;17.34;100.00;99627.69;5012616;28;19918;-55
2023/03/24 00:37:20;;;;;;;;;;;;;;;17.15;100.00;99605.78;4989229;28;19925;-55
2023/03/24 00:39:45;;;;;;;;;;;;;;;17.37;100.00;99617.44;4982643;28;19914;-54
2023/03/24 00:42:12;;;;;;;;;;;;;;;17.31;100.00;99625.53;4983139;28;19921;-54
2023/03/24 00:44:38;;;;;;;;;;;;;;;17.51;100.00;99621.19;4988979;28;19914;-56
2023/03/24 00:47:03;;;;;;;;;;;;;;;17.47;100.00;99598.50;4981094;28;19910;-53
2023/03/24 00:49:43;;;;;;;;;;;;;;;17.44;100.00;99593.63;4992379;28;19977;-55
2023/03/24 00:52:10;;;;;;;;;;;;;;;17.33;100.00;99582.84;4993013;28;19914;-55
2023/03/24 00:54:37;;;;;;;;;;;;;;;17.59;100.00;99588.22;4998100;28;19918;-57
2023/03/24 00:57:02;;;;;;;;;;;;;;;17.71;100.00;99593.31;4993143;28;19914;-55
2023/03/24 00:59:28;;;;;;;;;;;;;;;17.32;100.00;99583.94;4991941;28;19937;-54
2023/03/24 01:01:57;;;;;;;;;;;;;;;17.40;100.00;99584.44;4990539;28;19921;-53
2023/03/24 01:04:25;;;;;;;;;;;;;;;17.52;100.00;99565.25;4987240;28;19914;-54
2023/03/24 01:06:51;;;;;;;;;;;;;;;17.66;100.00;99554.66;4985839;28;19939;-56
2023/03/24 01:09:20;;;;;;;;;;;;;;;17.58;100.00;99573.09;4992821;28;20440;-56
2023/03/24 01:11:46;;;;;;;;;;;;;;;17.56;100.00;99569.03;4983696;28;19939;-57
2023/03/24 01:14:13;;;;;;;;;;;;;;;17.36;100.00;99554.44;4977652;28;19914;-55
2023/03/24 01:16:39;;;;;;;;;;;;;;;17.38;100.00;99592.81;4991221;28;19952;-55
2023/03/24 01:19:05;;;;;;;;;;;;;;;17.54;100.00;99542.28;4986277;28;19922;-57
2023/03/24 01:21:31;;;;;;;;;;;;;;;17.44;100.00;99561.19;4986290;28;19914;-55
2023/03/24 01:23:56;;;;;;;;;;;;;;;17.48;100.00;99552.28;4987874;28;20300;-54
2023/03/24 01:26:22;;;;;;;;;;;;;;;17.57;100.00;99535.50;4981913;28;19915;-54
2023/03/24 01:28:47;;;;;;;;;;;;;;;17.69;100.00;99557.66;4971600;28;19923;-56
2023/03/24 01:31:13;;;;;;;;;;;;;;;17.61;100.00;99545.50;4990301;28;19925;-52
2023/03/24 01:33:38;;;;;;;;;;;;;;;17.53;100.00;99551.47;4987795;28;19914;-54
2023/03/24 01:36:04;;;;;;;;;;;;;;;17.61;100.00;99553.59;4987612;28;19925;-52
2023/03/24 01:38:30;;;;;;;;;;;;;;;17.34;100.00;99538.53;5002632;28;19918;-52
2023/03/24 01:40:56;;;;;;;;;;;;;;;17.47;100.00;99550.66;4989819;28;19914;-55
2023/03/24 01:43:25;;;;;;;;;;;;;;;17.78;100.00;99533.56;4985883;28;19946;-57
2023/03/24 01:45:57;;;;;;;;;;;;;;;17.64;100.00;99530.59;4989541;28;19914;-54
2023/03/24 01:48:30;;;;;;;;;;;;;;;17.44;100.00;99521.50;5003023;28;19936;-54
2023/03/24 01:51:01;;;;;;;;;;;;;;;17.48;100.00;99540.66;4976269;28;19925;-56
2023/03/24 01:53:28;;;;;;;;;;;;;;;17.78;100.00;99506.53;5008232;28;19913;-56
2023/03/24 01:55:54;;;;;;;;;;;;;;;17.66;100.00;99514.13;4993327;28;19914;-56
2023/03/24 01:58:26;;;;;;;;;;;;;;;17.68;100.00;99525.47;4985382;28;19918;-55
2023/03/24 02:01:05;;;;;;;;;;;;;;;17.74;100.00;99506.25;5012167;28;19918;-55
2023/03/24 02:03:51;;;;;;;;;;;;;;;17.65;100.00;99528.72;4980972;28;19925;-54
2023/03/24 02:06:17;;;;;;;;;;;;;;;17.61;100.00;99518.47;4998649;28;19972;-56
2023/03/24 02:08:51;;;;;;;;;;;;;;;17.47;100.00;99517.41;4991799;28;19914;-56
2023/03/24 02:11:18;;;;;;;;;;;;;;;17.49;100.00;99509.84;5021840;28;19946;-58
2023/03/24 02:13:51;;;;;;;;;;;;;;;17.40;100.00;99503.38;4997606;28;19988;-56
2023/03/24 02:16:30;;;;;;;;;;;;;;;17.63;100.00;99500.06;4991023;28;19914;-57
2023/03/24 02:19:13;;;;;;;;;;;;;;;17.46;100.00;99499.56;4987729;28;19986;-55
2023/03/24 02:21:45;;;;;;;;;;;;;;;17.77;100.00;99489.47;4997371;28;19914;-55
2023/03/24 02:24:30;;;;;;;;;;;;;;;17.53;100.00;99519.03;4993717;28;19989;-52
2023/03/24 02:27:03;;;;;;;;;;;;;;;17.19;100.00;99498.84;5008545;28;19922;-54
2023/03/24 02:29:48;;;;;;;;;;;;;;;17.33;100.00;99488.28;4989942;28;19925;-54
2023/03/24 02:32:28;;;;;;;;;;;;;;;17.76;100.00;99487.88;5003036;28;19925;-55
2023/03/24 02:34:54;;;;;;;;;;;;;;;17.63;100.00;99481.16;4989620;28;19985;-52
2023/03/24 02:37:37;;;;;;;;;;;;;;;17.72;100.00;99496.78;4982345;28;19929;-55
2023/03/24 02:40:18;;;;;;;;;;;;;;;17.36;100.00;99502.31;4983584;28;19985;-55
2023/03/24 02:42:57;;;;;;;;;;;;;;;17.39;100.00;99526.09;5007084;28;19914;-57
2023/03/24 02:45:23;;;;;;;;;;;;;;;25.24;100.00;99655.84;4987574;28;19918;-56
2023/03/24 02:47:51;;;;;;;;;;;;;;;23.95;100.00;99646.75;4979925;28;19914;-58
2023/03/24 02:50:22;;;;;;;;;;;;;;;23.46;100.00;99587.47;4987715;28;19924;-55
2023/03/24 02:52:48;;;;;;;;;;;;;;;24.22;91.50;99579.41;4985913;28;19950;-54
2023/03/24 02:55:26;;;;;;;;;;;;;;;24.10;84.25;99597.22;4996844;28;19921;-55
2023/03/24 02:57:52;;;;;;;;;;;;;;;24.58;82.75;99583.78;4990115;28;19949;-55
2023/03/24 03:00:40;;;;;;;;;;;;;;;23.92;81.55;99593.59;4982407;28;19937;-56
2023/03/24 03:03:22;;;;;;;;;;;;;;;22.68;88.88;99581.13;5001453;28;19928;-54
2023/03/24 03:05:51;;;;;;;;;;;;;;;23.79;83.78;99592.59;4993879;28;19953;-54
2023/03/24 03:08:19;;;;;;;;;;;;;;;23.68;80.69;99615.81;4985707;28;19985;-56
2023/03/24 03:10:47;;;;;;;;;;;;;;;24.95;73.82;99616.31;4989815;28;19914;-55
2023/03/24 03:13:16;;;;;;;;;;;;;;;24.54;73.93;99621.88;4990231;28;19922;-56
2023/03/24 03:15:47;;;;;;;;;;;;;;;24.35;74.96;99616.72;4989670;28;19914;-54
2023/03/24 03:18:20;;;;;;;;;;;;;;;24.46;73.02;99609.84;4992453;28;19918;-55
2023/03/24 03:20:51;;;;;;;;;;;;;;;25.05;69.01;99637.88;4989594;28;19949;-56
2023/03/24 03:23:30;;;;;;;;;;;;;;;25.37;67.16;99640.38;4982669;28;19940;-53
2023/03/24 03:26:04;;;;;;;;;;;;;;;25.00;66.74;99647.03;4984966;28;19925;-56
2023/03/24 03:28:31;;;;;;;;;;;;;;;25.95;66.74;99643.66;4985786;28;19949;-52
2023/03/24 03:31:05;;;;;;;;;;;;;;;25.31;63.71;99635.09;4987876;28;19914;-54
2023/03/24 03:33:41;;;;;;;;;;;;;;;24.16;64.26;99647.03;4989592;28;19918;-56
2023/03/24 03:36:26;;;;;;;;;;;;;;;23.36;68.95;99634.09;4987204;28;19911;-55
2023/03/24 03:38:55;;;;;;;;;;;;;;;23.45;69.55;99651.31;4969678;28;19918;-54
2023/03/24 03:41:21;;;;;;;;;;;;;;;22.82;72.02;99662.84;4989522;28;19914;-56
2023/03/24 03:43:48;;;;;;;;;;;;;;;24.28;63.86;99679.22;4973058;28;19914;-56
2023/03/24 03:46:15;;;;;;;;;;;;;;;22.62;72.57;99703.06;4990470;28;19925;-56
2023/03/24 03:48:41;;;;;;;;;;;;;;;24.17;69.69;99687.69;4991422;28;19914;-54
2023/03/24 03:51:08;;;;;;;;;;;;;;;24.89;64.38;99700.41;4975604;28;19914;-56
2023/03/24 03:53:55;;;;;;;;;;;;;;;21.96;72.30;99724.19;4991665;28;19928;-55
2023/03/24 03:56:23;;;;;;;;;;;;;;;23.14;68.86;99707.38;4979134;28;19921;-55
2023/03/24 03:59:01;;;;;;;;;;;;;;;23.34;70.04;99711.59;4971652;28;19923;-55
2023/03/24 04:01:28;;;;;;;;;;;;;;;22.99;68.98;99703.06;4990984;28;19922;-54
2023/03/24 04:04:36;;;;;;;;;;;;;;;22.63;69.40;99722.94;4985676;28;19925;-55
2023/03/24 04:08:02;;;;;;;;;;;;;;;25.39;64.15;99726.50;5033720;28;19941;-55
2023/03/24 04:10:51;;;;;;;;;;;;;;;23.30;64.54;99712.50;5031695;28;19995;-54
2023/03/24 04:13:34;;;;;;;;;;;;;;;24.24;67.46;99735.59;5008360;28;19914;-51
2023/03/24 04:16:16;;;;;;;;;;;;;;;24.96;63.36;99732.75;4984906;28;19936;-55
2023/03/24 04:19:01;;;;;;;;;;;;;;;22.33;65.17;99734.09;4980235;28;19918;-56
2023/03/24 04:21:27;;;;;;;;;;;;;;;25.60;58.01;99745.03;4985498;28;19964;-55
2023/03/24 04:24:02;;;;;;;;;;;;;;;24.40;64.50;99739.50;4978198;28;19918;-54
2023/03/24 04:27:01;;;;;;;;;;;;;;;23.13;59.32;99762.22;4981483;28;19918;-53
2023/03/24 04:29:36;;;;;;;;;;;;;;;25.33;59.28;99775.09;4977214;28;19928;-53
2023/03/24 04:32:08;;;;;;;;;;;;;;;21.90;68.53;99775.94;4989931;28;19930;-53
2023/03/24 04:34:38;;;;;;;;;;;;;;;22.16;66.87;99761.09;4987967;28;19914;-48
2023/03/24 04:37:24;;;;;;;;;;;;;;;22.61;66.12;99771.47;4979578;28;19925;-54
2023/03/24 04:40:04;;;;;;;;;;;;;;;26.16;57.35;99791.66;4992381;28;19918;-52
2023/03/24 04:42:35;;;;;;;;;;;;;;;24.81;64.13;99777.78;4991973;28;19937;-51
2023/03/24 04:45:02;;;;;;;;;;;;;;;23.37;56.25;99766.66;4984610;28;19914;-50
2023/03/24 04:47:49;;;;;;;;;;;;;;;20.15;74.62;99782.50;5001864;28;19914;-49
2023/03/24 04:50:31;;;;;;;;;;;;;;;20.51;72.17;99766.91;4979393;28;19914;-53
2023/03/24 04:52:59;;;;;;;;;;;;;;;22.12;62.33;99766.34;4980153;28;20234;-53
2023/03/24 04:55:31;;;;;;;;;;;;;;;20.97;71.46;99774.56;4990878;28;20392;-53
2023/03/24 04:57:57;;;;;;;;;;;;;;;20.80;73.52;99774.25;4984615;28;19945;-54
2023/03/24 05:00:23;;;;;;;;;;;;;;;21.34;69.84;99786.56;4992455;28;19940;-49
2023/03/24 05:02:51;;;;;;;;;;;;;;;20.73;73.73;99778.06;4998824;28;19914;-53
2023/03/24 05:05:23;;;;;;;;;;;;;;;21.87;71.24;99787.44;5019814;28;19970;-49
2023/03/24 05:07:49;;;;;;;;;;;;;;;20.91;74.01;99781.16;4988522;28;19921;-50
2023/03/24 05:10:15;;;;;;;;;;;;;;;20.45;73.44;99788.72;4970350;28;19918;-51
2023/03/24 05:12:47;;;;;;;;;;;;;;;20.33;72.20;99793.72;5011284;28;19981;-51
2023/03/24 05:15:18;;;;;;;;;;;;;;;21.16;72.71;99826.25;4986100;28;19977;-51
2023/03/24 05:17:46;;;;;;;;;;;;;;;21.82;65.05;99814.75;4989798;28;19922;-51
2023/03/24 05:20:11;;;;;;;;;;;;;;;22.31;67.58;99807.13;4989881;28;19924;-51
2023/03/24 05:22:41;;;;;;;;;;;;;;;21.30;69.15;99796.44;4985194;28;19920;-52
2023/03/24 05:25:07;;;;;;;;;;;;;;;20.53;75.91;99800.03;4990668;28;19950;-52
2023/03/24 05:27:32;;;;;;;;;;;;;;;23.00;63.53;99821.91;4994297;28;19921;-51
2023/03/24 05:30:07;;;;;;;;;;;;;;;22.80;61.94;99830.50;5031390;28;19940;-52
2023/03/24 05:32:35;;;;;;;;;;;;;;;21.11;65.04;99828.22;4992495;28;19913;-52
2023/03/24 05:35:01;;;;;;;;;;;;;;;23.11;61.23;99835.34;4990054;28;19940;-51
2023/03/24 05:37:30;;;;;;;;;;;;;;;22.40;63.00;99830.94;4984400;28;19929;-53
2023/03/24 05:39:56;;;;;;;;;;;;;;;22.80;61.24;99835.97;4990115;28;19914;-53
2023/03/24 05:42:44;;;;;;;;;;;;;;;21.34;67.57;99835.53;4977616;28;19915;-51
2023/03/24 05:45:13;;;;;;;;;;;;;;;22.90;60.62;99849.41;4983183;28;19929;-52
2023/03/24 05:47:39;;;;;;;;;;;;;;;22.49;62.07;99838.16;4994693;28;19914;-54
2023/03/24 05:50:05;;;;;;;;;;;;;;;23.44;59.23;99846.13;4983761;28;19971;-51
2023/03/24 05:52:32;;;;;;;;;;;;;;;23.36;57.93;99850.38;4994022;28;19921;-52
2023/03/24 05:55:14;;;;;;;;;;;;;;;22.84;59.73;99856.06;4971224;28;19964;-51
2023/03/24 05:57:42;;;;;;;;;;;;;;;20.80;68.15;99861.19;5002810;28;19933;-51
2023/03/24 06:00:22;;;;;;;;;;;;;;;21.63;64.00;99850.91;5002746;28;19925;-52
2023/03/24 06:02:57;;;;;;;;;;;;;;;21.02;65.89;99866.91;4974186;28;19960;-52
2023/03/24 06:05:37;;;;;;;;;;;;;;;20.51;70.64;99856.53;4979280;28;19921;-50
2023/03/24 06:08:03;;;;;;;;;;;;;;;20.82;70.15;99846.19;4989242;28;19917;-51
2023/03/24 06:10:31;;;;;;;;;;;;;;;20.39;72.51;99851.50;4998359;28;19914;-51
2023/03/24 06:12:58;;;;;;;;;;;;;;;20.15;74.25;99866.63;4986006;28;19913;-49
2023/03/24 06:15:26;;;;;;;;;;;;;;;21.83;66.78;99868.06;4990750;28;20044;-53
2023/03/24 06:17:55;;;;;;;;;;;;;;;21.05;67.95;99882.66;4992623;28;19968;-54
2023/03/24 06:20:28;;;;;;;;;;;;;;;21.53;68.02;99885.59;4970684;28;19921;-53
2023/03/24 06:23:09;;;;;;;;;;;;;;;21.03;68.53;99879.41;4989841;28;19917;-53
2023/03/24 06:25:49;;;;;;;;;;;;;;;21.44;67.55;99888.97;4987609;28;19914;-54
2023/03/24 06:28:20;;;;;;;;;;;;;;;22.57;63.08;99887.59;4990533;28;19925;-50
2023/03/24 06:30:47;;;;;;;;;;;;;;;21.48;66.90;99878.31;4982416;28;19913;-52
2023/03/24 06:33:21;;;;;;;;;;;;;;;21.45;66.03;99881.59;4996324;28;19914;-50
2023/03/24 06:35:47;;;;;;;;;;;;;;;23.54;57.15;99938.69;4987135;28;19914;-52
2023/03/24 06:38:15;;;;;;;;;;;;;;;23.75;57.87;99900.00;5029738;28;19949;-54
2023/03/24 06:40:42;;;;;;;;;;;;;;;23.21;58.18;99897.84;5056868;28;19913;-51
2023/03/24 06:43:08;;;;;;;;;;;;;;;23.94;54.60;99907.25;5053175;28;19913;-51
2023/03/24 06:45:38;;;;;;;;;;;;;;;21.28;62.86;99899.25;5059573;28;19919;-51
2023/03/24 06:48:04;;;;;;;;;;;;;;;21.76;62.55;99927.50;5055752;28;19916;-55
2023/03/24 06:50:33;;;;;;;;;;;;;;;22.02;62.34;99919.75;5058636;28;19951;-54
2023/03/24 06:53:04;;;;;;;;;;;;;;;21.06;65.51;99922.31;5058635;28;19913;-52
2023/03/24 06:55:31;;;;;;;;;;;;;;;21.17;65.56;99911.31;5056222;28;19912;-50
2023/03/24 06:57:57;;;;;;;;;;;;;;;21.47;64.71;99920.22;5054950;28;19931;-52
2023/03/24 07:00:35;;;;;;;;;;;;;;;21.63;63.81;99921.63;5051449;28;19917;-52
2023/03/24 07:03:22;;;;;;;;;;;;;;;21.56;65.03;99923.09;5052782;28;19980;-52
2023/03/24 07:06:08;;;;;;;;;;;;;;;21.46;65.61;99915.88;5059675;28;19934;-54
2023/03/24 07:08:35;;;;;;;;;;;;;;;20.38;67.75;99915.03;5055259;28;19999;-52
2023/03/24 07:11:01;;;;;;;;;;;;;;;22.94;65.61;99932.19;5058094;28;19918;-52
2023/03/24 07:13:27;;;;;;;;;;;;;;;20.60;67.11;99937.13;5058483;28;19913;-53
2023/03/24 07:16:01;;;;;;;;;;;;;;;21.58;64.84;99938.03;5055926;28;19924;-53
2023/03/24 07:18:26;;;;;;;;;;;;;;;21.70;64.60;99945.00;5053257;28;19917;-52
2023/03/24 07:20:57;;;;;;;;;;;;;;;22.17;64.23;99936.97;5051409;28;19914;-53
2023/03/24 07:23:24;;;;;;;;;;;;;;;20.96;66.04;99955.03;5049607;28;19984;-52
2023/03/24 07:26:09;;;;;;;;;;;;;;;24.17;57.12;99971.72;5054354;28;19913;-53
2023/03/24 07:28:47;;;;;;;;;;;;;;;21.50;62.89;99952.28;5053476;28;19920;-51
2023/03/24 07:31:36;;;;;;;;;;;;;;;22.37;63.12;99952.19;5050105;28;19921;-51
2023/03/24 07:34:04;;;;;;;;;;;;;;;21.73;64.88;99958.81;5053600;28;19913;-49
2023/03/24 07:36:30;;;;;;;;;;;;;;;21.29;65.68;99946.25;5048354;28;19913;-50
2023/03/24 07:38:57;;;;;;;;;;;;;;;21.55;64.46;99960.38;4971485;28;19976;-53
2023/03/24 07:41:29;;;;;;;;;;;;;;;21.31;63.99;99954.94;4963990;28;19922;-51
2023/03/24 07:43:58;;;;;;;;;;;;;;;21.14;66.63;99948.06;4949235;29;19918;-50
2023/03/24 07:46:30;;;;;;;;;;;;;;;20.54;68.38;99946.41;4961757;28;19914;-50
2023/03/24 07:48:56;;;;;;;;;;;;;;;21.59;65.98;99966.06;4969043;28;19914;-51
2023/03/24 07:51:22;;;;;;;;;;;;;;;23.23;59.46;99963.03;4961935;28;19914;-49
2023/03/24 07:53:57;;;;;;;;;;;;;;;24.61;56.71;99963.88;4962011;28;19919;-50
2023/03/24 07:56:40;;;;;;;;;;;;;;;22.66;59.79;99964.00;4964320;28;19948;-51
2023/03/24 07:59:08;;;;;;;;;;;;;;;21.56;65.55;99970.16;4966463;28;19938;-52
2023/03/24 08:01:49;;;;;;;;;;;;;;;22.04;65.99;99957.59;4965725;28;19937;-51
2023/03/24 08:04:17;;;;;;;;;;;;;;;22.10;63.69;99967.28;4964361;28;19914;-49
2023/03/24 08:06:57;;;;;;;;;;;;;;;21.68;64.11;99963.50;4962010;28;19921;-51
2023/03/24 08:09:23;;;;;;;;;;;;;;;21.33;62.96;99978.03;4968301;28;19915;-54
2023/03/24 08:11:49;;;;;;;;;;;;;;;22.09;64.23;99979.28;4967240;28;19937;-53
2023/03/24 08:14:15;;;;;;;;;;;;;;;22.19;63.51;99973.72;4964653;28;19914;-52
2023/03/24 08:16:41;;;;;;;;;;;;;;;21.52;63.20;99977.28;4969738;28;19914;-53
2023/03/24 08:19:06;;;;;;;;;;;;;;;22.33;64.38;99981.13;4968052;28;19918;-48
2023/03/24 08:21:31;;;;;;;;;;;;;;;22.05;64.23;99976.34;4968184;28;19914;-51
2023/03/24 08:23:56;;;;;;;;;;;;;;;21.30;63.98;99986.75;4964690;28;19974;-51
2023/03/24 08:26:25;;;;;;;;;;;;;;;21.29;63.34;99993.31;4965322;28;19925;-52
2023/03/24 08:28:50;;;;;;;;;;;;;;;20.92;64.95;99992.84;4966042;28;19957;-54
2023/03/24 08:31:16;;;;;;;;;;;;;;;20.99;65.22;99976.22;4965481;28;19914;-53
2023/03/24 08:33:41;;;;;;;;;;;;;;;21.44;64.09;99991.50;4964402;28;19914;-55
2023/03/24 08:36:07;;;;;;;;;;;;;;;21.65;62.87;99988.56;4964046;29;19950;-54
2023/03/24 08:38:32;;;;;;;;;;;;;;;24.41;59.58;99997.16;4979878;28;19918;-52
2023/03/24 08:41:05;;;;;;;;;;;;;;;21.54;61.47;99990.56;4985376;28;20028;-51
2023/03/24 08:43:31;;;;;;;;;;;;;;;25.56;53.33;100006.84;4983522;28;19922;-52
2023/03/24 08:45:57;;;;;;;;;;;;;;;21.98;56.88;100008.56;4983337;28;19920;-54
2023/03/24 08:48:23;;;;;;;;;;;;;;;21.99;58.39;100007.44;4986231;28;19918;-53
2023/03/24 08:50:49;;;;;;;;;;;;;;;21.66;60.15;100014.69;4985048;28;19929;-50
2023/03/24 08:53:14;;;;;;;;;;;;;;;22.85;58.48;100011.13;4986403;28;19945;-50
2023/03/24 08:55:43;;;;;;;;;;;;;;;22.01;59.43;100031.69;4981493;28;19918;-50
2023/03/24 08:58:13;;;;;;;;;;;;;;;21.40;58.96;100013.03;4984525;28;19925;-53
2023/03/24 09:00:39;;;;;;;;;;;;;;;22.23;57.44;100030.28;4987869;28;19952;-53
2023/03/24 09:03:06;;;;;;;;;;;;;;;21.63;58.38;100025.00;4988191;28;19922;-52
2023/03/24 09:05:31;;;;;;;;;;;;;;;21.96;57.97;100051.59;4983128;28;19921;-53
2023/03/24 09:07:59;;;;;;;;;;;;;;;22.48;57.43;100040.03;4983101;28;19918;-52
2023/03/24 09:10:24;;;;;;;;;;;;;;;22.49;55.68;100050.63;4984729;28;19914;-53
2023/03/24 09:12:50;;;;;;;;;;;;;;;22.58;54.48;100067.13;4984082;28;19929;-50
2023/03/24 09:15:16;;;;;;;;;;;;;;;23.33;54.76;100045.50;4982897;28;19922;-54
2023/03/24 09:17:41;;;;;;;;;;;;;;;27.23;47.82;100050.75;4989249;28;19924;-55
2023/03/24 09:20:10;;;;;;;;;;;;;;;23.46;52.90;100052.06;4983975;28;19914;-53
2023/03/24 09:22:44;;;;;;;;;;;;;;;23.08;53.25;100063.06;4983518;28;19922;-53
2023/03/24 09:25:11;;;;;;;;;;;;;;;24.25;49.23;100048.63;4983642;28;19915;-53
2023/03/24 09:27:36;;;;;;;;;;;;;;;24.98;50.49;100069.63;4985248;28;19925;-55
2023/03/24 09:30:02;;;;;;;;;;;;;;;24.30;50.04;100065.69;4986873;28;19914;-53
2023/03/24 09:32:27;;;;;;;;;;;;;;;25.07;48.56;100084.16;4985513;28;19915;-52
2023/03/24 09:34:53;;;;;;;;;;;;;;;24.54;49.53;100067.34;4984418;28;19920;-54
2023/03/24 09:37:18;;;;;;;;;;;;;;;25.68;48.17;100064.53;4984738;28;20052;-55
2023/03/24 09:39:44;;;;;;;;;;;;;;;24.56;49.09;100072.50;4984085;28;19922;-55
2023/03/24 09:42:17;;;;;;;;;;;;;;;25.34;48.32;100065.97;4984401;28;20007;-54
2023/03/24 09:44:45;;;;;;;;;;;;;;;24.24;48.57;100071.59;4984955;28;19929;-51
2023/03/24 09:47:28;;;;;;;;;;;;;;;22.14;52.76;100069.06;4982159;28;19945;-50
2023/03/24 09:49:57;;;;;;;;;;;;;;;25.11;48.44;100081.59;4985556;28;19914;-53
2023/03/24 09:52:26;;;;;;;;;;;;;;;26.61;45.93;100071.97;4985067;28;19933;-52
2023/03/24 09:54:57;;;;;;;;;;;;;;;26.01;45.99;100091.53;4987574;28;19950;-56
2023/03/24 09:57:36;;;;;;;;;;;;;;;26.71;44.30;100077.09;4989826;28;19917;-54
2023/03/24 10:00:22;;;;;;;;;;;;;;;26.71;43.62;100079.84;4985610;28;19981;-48
2023/03/24 10:02:48;;;;;;;;;;;;;;;26.91;43.25;100080.34;4987718;28;19914;-54
2023/03/24 10:05:34;;;;;;;;;;;;;;;28.21;41.00;100089.59;4990133;28;19957;-48
2023/03/24 10:08:08;;;;;;;;;;;;;;;28.03;41.36;100092.41;4981944;28;19919;-53
2023/03/24 10:10:52;;;;;;;;;;;;;;;27.03;41.90;100088.75;4986320;28;19914;-54
2023/03/24 10:13:41;;;;;;;;;;;;;;;26.57;42.29;100098.41;4980166;28;19974;-56
2023/03/24 10:16:11;;;;;;;;;;;;;;;25.73;43.95;100088.22;4983295;28;19914;-50
2023/03/24 10:18:44;;;;;;;;;;;;;;;23.93;46.11;100073.00;4989271;28;19944;-51
2023/03/24 10:21:21;;;;;;;;;;;;;;;25.18;45.08;100084.72;4985865;28;19925;-51
2023/03/24 10:23:53;;;;;;;;;;;;;;;26.08;44.55;100091.06;4984006;28;19918;-52
2023/03/24 10:26:18;;;;;;;;;;;;;;;25.04;44.90;100073.84;4988030;28;19937;-56
2023/03/24 10:28:48;;;;;;;;;;;;;;;24.95;45.75;100084.75;4985700;28;19914;-52
2023/03/24 10:31:16;;;;;;;;;;;;;;;27.52;43.05;100081.34;4993897;28;19914;-55
2023/03/24 10:33:43;;;;;;;;;;;;;;;26.59;41.91;100085.19;4991710;28;20859;-51
2023/03/24 10:36:16;;;;;;;;;;;;;;;26.47;43.22;100108.56;4988615;28;19918;-53
2023/03/24 10:38:42;;;;;;;;;;;;;;;25.90;45.11;100076.50;4988304;28;19922;-52
2023/03/24 10:41:14;;;;;;;;;;;;;;;24.62;46.71;100104.88;4985635;28;20008;-52
2023/03/24 10:43:41;;;;;;;;;;;;;;;25.34;47.99;100093.34;4987945;28;19915;-52
2023/03/24 10:46:08;;;;;;;;;;;;;;;25.12;47.55;100111.38;4985405;28;19938;-54
2023/03/24 10:48:43;;;;;;;;;;;;;;;24.36;50.07;100104.63;4988556;28;19929;-53
2023/03/24 10:51:35;;;;;;;;;;;;;;;23.99;50.38;100093.63;4988309;28;19914;-54
2023/03/24 10:54:28;;;;;;;;;;;;;;;24.65;54.72;100095.25;4988517;28;19918;-49
2023/03/24 10:56:56;;;;;;;;;;;;;;;24.07;64.19;100108.53;4984863;28;19914;-56
2023/03/24 10:59:27;;;;;;;;;;;;;;;23.21;100.00;100113.31;4984822;28;19954;-59
2023/03/24 11:02:08;;;;;;;;;;;;;;;22.99;98.66;100124.84;4987107;28;19924;-60
2023/03/24 11:04:35;;;;;;;;;;;;;;;22.95;96.73;100118.34;4989168;28;19913;-59
2023/03/24 11:07:04;;;;;;;;;;;;;;;24.16;88.63;100112.16;4986489;28;19930;-58
2023/03/24 11:09:37;;;;;;;;;;;;;;;25.27;87.78;100123.09;4985024;28;19921;-58
2023/03/24 11:12:02;;;;;;;;;;;;;;;24.22;86.49;100120.22;4984389;28;20008;-58
2023/03/24 11:14:29;;;;;;;;;;;;;;;24.80;84.12;100109.72;4993443;28;19914;-59
2023/03/24 11:17:08;;;;;;;;;;;;;;;27.14;77.36;100118.56;4987227;28;23569;-58
2023/03/24 11:19:35;;;;;;;;;;;;;;;28.44;73.47;100115.63;4992187;28;19956;-57
2023/03/24 11:22:02;;;;;;;;;;;;;;;28.56;69.80;100114.88;4987851;28;19956;-58
2023/03/24 11:24:28;;;;;;;;;;;;;;;28.83;62.86;100118.25;4986676;28;19920;-57
2023/03/24 11:26:59;;;;;;;;;;;;;;;31.16;59.98;100118.88;4984518;28;19937;-57
2023/03/24 11:29:26;;;;;;;;;;;;;;;28.66;61.93;100113.69;4985956;28;20051;-56
2023/03/24 11:31:53;;;;;;;;;;;;;;;26.25;62.82;100117.72;4987955;28;19959;-52
2023/03/24 11:34:23;;;;;;;;;;;;;;;24.17;74.36;100104.78;4989186;28;19918;-57
2023/03/24 11:36:53;;;;;;;;;;;;;;;24.77;78.09;100091.97;4983153;28;19938;-56
2023/03/24 11:39:20;;;;;;;;;;;;;;;23.92;78.52;100095.97;4992235;28;19957;-58
2023/03/24 11:41:51;;;;;;;;;;;;;;;27.50;67.15;100114.63;4987047;28;19914;-58
2023/03/24 11:44:16;;;;;;;;;;;;;;;25.38;70.29;100140.03;4987015;28;19921;-54
2023/03/24 11:46:44;;;;;;;;;;;;;;;22.49;100.00;100178.69;4986020;28;19914;-61
2023/03/24 11:49:11;;;;;;;;;;;;;;;24.53;100.00;100196.09;4990372;28;19953;-60
2023/03/24 11:51:38;;;;;;;;;;;;;;;21.95;100.00;100164.28;4986862;28;19914;-59
2023/03/24 11:54:14;;;;;;;;;;;;;;;29.82;100.00;100189.34;4980540;28;19914;-60
2023/03/24 11:56:41;;;;;;;;;;;;;;;34.09;44.49;100176.09;4988901;28;19917;-58
2023/03/24 11:59:26;;;;;;;;;;;;;;;35.38;37.00;100167.00;4992259;28;20330;-58
2023/03/24 12:02:01;;;;;;;;;;;;;;;30.77;40.88;100165.50;4983197;28;19948;-56
2023/03/24 12:04:26;;;;;;;;;;;;;;;31.13;42.67;100149.16;4984974;28;19935;-59
2023/03/24 12:06:52;;;;;;;;;;;;;;;27.04;48.61;100139.72;4990403;28;19913;-56
2023/03/24 12:09:24;;;;;;;;;;;;;;;26.95;52.39;100138.91;4987311;28;19924;-58
2023/03/24 12:12:08;;;;;;;;;;;;;;;28.26;51.10;100136.13;4987534;28;20393;-56
2023/03/24 12:14:42;;;;;;;;;;;;;;;28.20;48.02;100149.25;4984715;28;20027;-57
2023/03/24 12:17:16;;;;;;;;;;;;;;;28.72;49.45;100125.28;4979429;28;19914;-59
2023/03/24 12:19:47;;;;;;;;;;;;;;;31.36;45.61;100132.84;4985298;28;19923;-57
2023/03/24 12:22:18;;;;;;;;;;;;;;;29.08;50.33;100121.09;4989554;28;19944;-58
2023/03/24 12:24:52;;;;;;;;;;;;;;;31.37;46.86;100130.88;4988651;28;19918;-59
2023/03/24 12:27:28;;;;;;;;;;;;;;;32.52;46.76;100130.06;4992938;28;19914;-59
2023/03/24 12:30:05;;;;;;;;;;;;;;;35.81;43.74;100141.59;4989994;28;19917;-60
2023/03/24 12:32:40;;;;;;;;;;;;;;;36.41;38.75;100141.56;4991385;28;19918;-59
2023/03/24 12:35:08;;;;;;;;;;;;;;;34.23;41.95;100130.31;4992012;28;19945;-59
2023/03/24 12:37:44;;;;;;;;;;;;;;;30.53;45.10;100119.47;4986472;28;19924;-57
2023/03/24 12:40:24;;;;;;;;;;;;;;;29.75;47.95;100110.00;4986612;28;19925;-57
2023/03/24 12:42:57;;;;;;;;;;;;;;;29.48;47.95;100111.47;4982372;28;19922;-58
2023/03/24 12:45:41;;;;;;;;;;;;;;;28.46;50.06;100088.59;4987091;28;19925;-57
2023/03/24 12:48:06;;;;;;;;;;;;;;;29.25;45.39;100094.53;4984349;28;19914;-58
2023/03/24 12:50:38;;;;;;;;;;;;;;;28.73;49.86;100089.19;4989887;28;19927;-58
2023/03/24 12:53:05;;;;;;;;;;;;;;;30.53;48.71;100083.59;4989100;28;19914;-58
2023/03/24 12:55:41;;;;;;;;;;;;;;;30.78;45.74;100083.53;4986012;28;19928;-58
2023/03/24 12:58:09;;;;;;;;;;;;;;;30.28;45.86;100091.97;4986704;28;19929;-55
2023/03/24 13:00:39;;;;;;;;;;;;;;;28.19;48.71;100104.47;4985362;28;19918;-58